Saranac Lake, NY

3:00 PM EST on December 25, 2014 (GMT -0500)
Massena International-Richards | Change Station
CLOSE
Current Station
Airport
Location: Massena,
Elevation: 213 ft
Nearby Weather Stations

Elev 213 ft 44.94 °N, 74.85 °W | Updated 7 minutes ago

Overcast
Overcast
42 °F
Feels Like 33 °F
N
23
Wind Variable Wind from SW
Gusts 34 mph

Today
High -- | Low -- °F
--% Chance of Precip.
Yesterday
High -- | Low -- °F
Precip. -- in
7:30 AM 4:22 PM
Waxing Crescent, 19% visible
Pressure 29.64 in
Visibility 10.0 miles
Clouds Mostly Cloudy 4800 ft
Mostly Cloudy 5500 ft
Windchill 33 °F
Dew Point 32 °F
Humidity 67%
Rainfall 0.12 in
Snow Depth Not available.
UV 0 out of 12
Pollen .10 out of 12
Air Quality Not available.
Flu Activity Not available.
METAR KMSS 251953Z AUTO 23020G30KT 10SM BKN048 BKN055 06/00 A2963 RMK AO2 PK WND 20031/1935 SLP037 T00560000

More Conditions Fewer Conditions

Pressure 29.64 in
Visibility 10.0 miles
Clouds Mostly Cloudy 4800 ft
Mostly Cloudy 5500 ft
Windchill 33 °F
Dew Point 32 °F
Humidity 67%
Rainfall 0.12 in
Snow Depth Not available.
UV 0 out of 12
Pollen .10 out of 12
Air Quality Not available.
Flu Activity Not available.
METAR KMSS 251953Z AUTO 23020G30KT 10SM BKN048 BKN055 06/00 A2963 RMK AO2 PK WND 20031/1935 SLP037 T00560000

More Conditions Fewer Conditions

10-Day Weather Forecast

Almanac

Astronomy

Dec. 25, 2014 Rise Set
Actual Time
Civil Twilight
Nautical Twilight
Astronomical Twilight
Moon
Length of Visible Light
Length of Day
Tomorrow will be .
, % of the Moon is Illuminated

Today's Extremes

State Highs State Lows

Community

WunderPhotos

Upload Photos

1,780,385 photos uploaded!

WunderBlogs® & News

Nearby

Air Quality

  Air Quality AQ Index Pollutant
Not available.

Snow Depth

Station Depth Elevation

Earthquake Activity

City Distance Mag. Time & Date
Minimum magnitude displayed is 2.5.

Coastal Water Temperatures

Place Temperature

Nearby Weather Stations